sensor_id;sensor_type;location;lat;lon;timestamp;pressure;altitude;pressure_sealevel;temperature;humidity
71642;BME280;60657;50.122;14.468;2023-03-25T00:00:43;97389.15024045465;;;11.803234912642097;72.18532082093537
71642;BME280;60657;50.122;14.468;2023-03-25T00:03:59;97370.13870576496;;;11.784542610818647;72.16052491035325
71642;BME280;60657;50.122;14.468;2023-03-25T00:07:16;97366.79210299854;;;11.70710307469291;72.06706340123598
71642;BME280;60657;50.122;14.468;2023-03-25T00:10:32;97374.33714680818;;;11.712443732356753;72.44663157091631
71642;BME280;60657;50.122;14.468;2023-03-25T00:13:48;97367.70614012833;;;11.675059128709847;72.2558937972076
71642;BME280;60657;50.122;14.468;2023-03-25T00:17:04;97372.69475095044;;;11.712443732356753;72.1967650873579
71642;BME280;60657;50.122;14.468;2023-03-25T00:20:20;97359.37109730701;;;11.741817349507897;72.00221255817502
71642;BME280;60657;50.122;14.468;2023-03-25T00:23:36;97362.93214693785;;;11.685740444037535;72.16624704356451
71642;BME280;60657;50.122;14.468;2023-03-25T00:26:53;97363.78364989471;;;11.626993209735254;72.56298161287862
71642;BME280;60657;50.122;14.468;2023-03-25T00:30:11;97361.19839486813;;;11.643015182726785;72.20439459830625
71642;BME280;60657;50.122;14.468;2023-03-25T00:33:28;97370.50398414239;;;11.514839398794535;72.36842908369573
71642;BME280;60657;50.122;14.468;2023-03-25T00:36:44;97360.28510344464;;;11.70710307469291;72.0937666895552
71642;BME280;60657;50.122;14.468;2023-03-25T00:40:00;97365.42603713658;;;11.618982223239492;72.33409628442817
71642;BME280;60657;50.122;14.468;2023-03-25T00:43:17;97374.58034298653;;;11.592278934920273;72.25017166399634
71642;BME280;60657;50.122;14.468;2023-03-25T00:46:33;97371.41466589495;;;11.568245975432973;72.461890592813
71642;BME280;60657;50.122;14.468;2023-03-25T00:49:49;97360.67884252266;;;11.512169069962617;72.83764400701915
71642;BME280;60657;50.122;14.468;2023-03-25T00:53:04;97356.51320066368;;;11.469443808651867;73.02456702525369
71642;BME280;60657;50.122;14.468;2023-03-25T00:56:20;97368.188619045;;;11.512169069962617;72.96734569314107
71642;BME280;60657;50.122;14.468;2023-03-25T00:59:38;97356.63193721352;;;11.418707560845348;73.32021057450217
71642;BME280;60657;50.122;14.468;2023-03-25T01:02:53;97357.48264705666;;;11.469443808651867;73.21911955443656
71642;BME280;60657;50.122;14.468;2023-03-25T01:06:10;97353.37648306266;;;11.397344930189973;73.53955901426718
71642;BME280;60657;50.122;14.468;2023-03-25T01:09:27;97359.27133610575;;;11.357289997711149;73.67498283360037
71642;BME280;60657;50.122;14.468;2023-03-25T01:12:43;97342.75926463152;;;11.343938353551536;73.66544594491494
71642;BME280;60657;50.122;14.468;2023-03-25T01:15:58;97341.2037476308;;;11.30655374990463;73.92294193942168
71642;BME280;60657;50.122;14.468;2023-03-25T01:19:14;97351.99491982289;;;11.322575722896161;73.92866407263294
71642;BME280;60657;50.122;14.468;2023-03-25T01:22:30;97352.84478600416;;;11.290531776913099;74.05645838101778
71642;BME280;60657;50.122;14.468;2023-03-25T01:25:46;97364.40062772232;;;11.325246051728087;73.8466468299382
71642;BME280;60657;50.122;14.468;2023-03-25T01:29:03;97364.40062772232;;;11.317235065232317;73.99542229343099
71642;BME280;60657;50.122;14.468;2023-03-25T01:32:19;97362.75787368092;;;11.242465857938505;74.05073624780651
71642;BME280;60657;50.122;14.468;2023-03-25T01:35:35;97357.74409512349;;;11.253147173266193;74.18234531166553
71642;BME280;60657;50.122;14.468;2023-03-25T01:38:51;97361.0866487536;;;11.247806515602349;74.02021820401312
71642;BME280;60657;50.122;14.468;2023-03-25T01:42:08;97359.30031825305;;;11.343938353551536;73.86190585183489
71642;BME280;60657;50.122;14.468;2023-03-25T01:45:26;97352.67210036477;;;11.298542763408868;74.11558709086748
71642;BME280;60657;50.122;14.468;2023-03-25T01:48:47;97342.67157619925;;;11.383993286030368;73.84283207446403
71642;BME280;60657;50.122;14.468;2023-03-25T01:52:04;97352.78756709938;;;11.26382848859388;74.170901045243
71642;BME280;60657;50.122;14.468;2023-03-25T01:55:25;97350.40932486398;;;11.218432898451212;74.35210193026627
71642;BME280;60657;50.122;14.468;2023-03-25T01:58:41;97351.45525167463;;;11.106279087510494;74.77744716563669
71642;BME280;60657;50.122;14.468;2023-03-25T02:01:59;97335.6827008852;;;11.090257114518963;74.64583810177767
71642;BME280;60657;50.122;14.468;2023-03-25T02:05:19;97334.23449963782;;;10.975432974746319;75.15701533531701
71642;BME280;60657;50.122;14.468;2023-03-25T02:08:43;97339.24461241641;;;10.978103303578237;75.20469977874419
71642;BME280;60657;50.122;14.468;2023-03-25T02:11:59;97333.49515046358;;;10.900663767452507;75.46219577325094
71642;BME280;60657;50.122;14.468;2023-03-25T02:15:16;97335.2728204991;;;10.876630807965206;75.73685816739147
71642;BME280;60657;50.122;14.468;2023-03-25T02:18:36;97319.66706178461;;;10.740444037537195;76.27283131151293
71642;BME280;60657;50.122;14.468;2023-03-25T02:22:07;97324.75350609455;;;10.681696803234914;76.53223468375677
71642;BME280;60657;50.122;14.468;2023-03-25T02:25:50;97325.5749046324;;;10.71908140688182;76.61234454871443
71642;BME280;60657;50.122;14.468;2023-03-25T02:29:46;97319.8251934321;;;10.67635614557107;76.66384374761577
71642;BME280;60657;50.122;14.468;2023-03-25T02:33:25;97332.3277682566;;;10.679026474402988;76.87556267643244
71642;BME280;60657;50.122;14.468;2023-03-25T02:37:00;97332.3277682566;;;10.67635614557107;77.0128938735027
71642;BME280;60657;50.122;14.468;2023-03-25T02:40:38;97335.63939975113;;;10.671015487907226;76.89272907606622
71642;BME280;60657;50.122;14.468;2023-03-25T02:44:03;97329.81191792277;;;10.697718776226445;77.00907911802854
71642;BME280;60657;50.122;14.468;2023-03-25T02:47:29;97339.77262067446;;;10.697718776226445;76.99191271839474
71642;BME280;60657;50.122;14.468;2023-03-25T02:50:49;97326.42243484594;;;10.799191271839476;76.7191577019913
71642;BME280;60657;50.122;14.468;2023-03-25T02:54:11;97332.06714153895;;;10.812542915999082;76.63523308155948
71642;BME280;60657;50.122;14.468;2023-03-25T02:57:31;97320.35421006764;;;10.903334096284425;76.81452658884565
71642;BME280;60657;50.122;14.468;2023-03-25T03:00:52;97307.1331275048;;;10.900663767452507;77.52216372930495
71642;BME280;60657;50.122;14.468;2023-03-25T03:04:08;97304.42189523776;;;10.951400015259019;78.0161745632105
71642;BME280;60657;50.122;14.468;2023-03-25T03:07:25;97301.33050723442;;;10.73777370870527;78.39002059967956
71642;BME280;60657;50.122;14.468;2023-03-25T03:10:48;97296.45794625489;;;10.743114366369113;78.50637064164187
71642;BME280;60657;50.122;14.468;2023-03-25T03:14:18;97295.77091070756;;;10.596246280613414;79.00801098649576
71642;BME280;60657;50.122;14.468;2023-03-25T03:17:52;97301.51929563687;;;10.668345159075301;78.86877241168841
71642;BME280;60657;50.122;14.468;2023-03-25T03:21:21;97291.50411982281;;;10.735103379873351;78.70664530403602
71642;BME280;60657;50.122;14.468;2023-03-25T03:24:48;97299.82340538502;;;10.7537956816968;78.70664530403602
71642;BME280;60657;50.122;14.468;2023-03-25T03:28:13;97299.87688123797;;;10.660334172579539;78.6780346379797
71642;BME280;60657;50.122;14.468;2023-03-25T03:31:38;97308.27420448666;;;10.660334172579539;78.61699855039292
71642;BME280;60657;50.122;14.468;2023-03-25T03:35:02;97307.4004618722;;;10.644312199588008;78.47394522011139
71642;BME280;60657;50.122;14.468;2023-03-25T03:38:29;97314.10165860679;;;10.57488364995804;77.69573510337987
71642;BME280;60657;50.122;14.468;2023-03-25T03:41:54;97309.96897226818;;;10.65232318608377;76.43114366369116
71642;BME280;60657;50.122;14.468;2023-03-25T03:45:18;97318.3117874608;;;10.59090562294957;75.47364003967346
71642;BME280;60657;50.122;14.468;2023-03-25T03:48:41;97326.57740683336;;;10.596246280613414;74.86518654154268
71642;BME280;60657;50.122;14.468;2023-03-25T03:52:05;97334.07269080218;;;10.596246280613414;74.68207827878233
71642;BME280;60657;50.122;14.468;2023-03-25T03:55:29;97334.02189754837;;;10.67635614557107;74.54474708171206
71642;BME280;60657;50.122;14.468;2023-03-25T03:58:52;97344.13201799587;;;10.564202334630352;74.66872663462271
71642;BME280;60657;50.122;14.468;2023-03-25T04:02:15;97337.38417208858;;;10.593575951781489;74.15754940108339
71642;BME280;60657;50.122;14.468;2023-03-25T04:05:42;97333.30158933093;;;10.534828717479208;73.92484931715877
71642;BME280;60657;50.122;14.468;2023-03-25T04:09:09;97334.29703024162;;;10.457389181353477;73.95536736095217
71642;BME280;60657;50.122;14.468;2023-03-25T04:12:30;97325.38061475023;;;10.331883726253146;74.11940184634165
71642;BME280;60657;50.122;14.468;2023-03-25T04:15:52;97337.89582819128;;;10.262455176623178;74.32539864194705
71642;BME280;60657;50.122;14.468;2023-03-25T04:19:08;97342.9429310591;;;10.273136491950865;74.39978637369344
71642;BME280;60657;50.122;14.468;2023-03-25T04:22:24;97333.69275449851;;;10.36125734340429;74.170901045243
71642;BME280;60657;50.122;14.468;2023-03-25T04:25:40;97319.77154715096;;;10.144960708018615;74.49706263828489
71642;BME280;60657;50.122;14.468;2023-03-25T04:28:55;97320.63992857514;;;10.19035629816129;74.3768978408484
71642;BME280;60657;50.122;14.468;2023-03-25T04:32:11;97328.15084809529;;;10.155642023346303;74.47226672770276
71642;BME280;60657;50.122;14.468;2023-03-25T04:35:27;97321.53108419149;;;10.152971694514385;74.39978637369344
71642;BME280;60657;50.122;14.468;2023-03-25T04:38:43;97322.16571899541;;;10.291828793774322;74.00495918211642
71642;BME280;60657;50.122;14.468;2023-03-25T04:41:59;97323.73738018156;;;10.350576028076603;73.62157625696193
71642;BME280;60657;50.122;14.468;2023-03-25T04:45:15;97332.02558377093;;;10.31853208209354;73.8313878080415
71642;BME280;60657;50.122;14.468;2023-03-25T04:48:32;97343.55335761273;;;10.374608987563896;73.70931563286793
71642;BME280;60657;50.122;14.468;2023-03-25T04:51:51;97339.30020633305;;;10.313191424429696;73.46707866025788
71642;BME280;60657;50.122;14.468;2023-03-25T04:55:08;97346.98225619763;;;10.345235370412759;73.85999847409781
71642;BME280;60657;50.122;14.468;2023-03-25T04:58:28;97347.02887686307;;;10.323872739757384;74.04882887006943
71642;BME280;60657;50.122;14.468;2023-03-25T05:01:44;97343.71837073681;;;10.297169451438165;74.18425268940261
71642;BME280;60657;50.122;14.468;2023-03-25T05:05:02;97357.02951799377;;;10.25978484779126;74.28343633173114
71642;BME280;60657;50.122;14.468;2023-03-25T05:08:18;97352.82815595165;;;10.299839780270084;74.15754940108339
71642;BME280;60657;50.122;14.468;2023-03-25T05:11:34;97344.49343702568;;;10.33722438391699;73.97634851606011
71642;BME280;60657;50.122;14.468;2023-03-25T05:14:52;97356.25304703285;;;10.23308155947204;74.17853055619135
71642;BME280;60657;50.122;14.468;2023-03-25T05:18:08;97351.29885135537;;;10.20904859998474;74.30823224231327
71642;BME280;60657;50.122;14.468;2023-03-25T05:21:25;97352.14339933665;;;10.155642023346303;73.92294193942168
71642;BME280;60657;50.122;14.468;2023-03-25T05:24:41;97352.32143801959;;;10.027466239414053;74.1861600671397
71642;BME280;60657;50.122;14.468;2023-03-25T05:27:57;97354.76544645164;;;10.067521171892885;73.86953536278324
71642;BME280;60657;50.122;14.468;2023-03-25T05:31:12;97363.00764612253;;;10.070191500724803;73.92675669489586
71642;BME280;60657;50.122;14.468;2023-03-25T05:34:28;97362.09684208166;;;10.185015640497447;73.9057755397879
71642;BME280;60657;50.122;14.468;2023-03-25T05:37:44;97360.92994743785;;;10.444037537193864;73.26871137560083
71642;BME280;60657;50.122;14.468;2023-03-25T05:41:00;97370.8398851613;;;10.40398260471504;73.23437857633326
71642;BME280;60657;50.122;14.468;2023-03-25T05:44:15;97370.79257435015;;;10.345235370412759;73.33737697413596
71642;BME280;60657;50.122;14.468;2023-03-25T05:47:31;97365.93187015841;;;10.355916685740446;73.40794995040818
71642;BME280;60657;50.122;14.468;2023-03-25T05:50:47;97363.37185066252;;;10.393301289387352;73.16380560006104
71642;BME280;60657;50.122;14.468;2023-03-25T05:54:03;97362.50234318661;;;10.444037537193864;72.88151369497216
71642;BME280;60657;50.122;14.468;2023-03-25T05:57:20;97358.9472428755;;;10.644312199588008;72.63546196688792
71642;BME280;60657;50.122;14.468;2023-03-25T06:00:38;97357.02589026217;;;10.777828641184101;71.06759746700237
71642;BME280;60657;50.122;14.468;2023-03-25T06:03:54;97354.53528671796;;;10.76180666819257;71.22018768596934
71642;BME280;60657;50.122;14.468;2023-03-25T06:07:10;97363.80270936372;;;10.649652857251851;71.11528191042954
71642;BME280;60657;50.122;14.468;2023-03-25T06:10:27;97362.87985043183;;;10.777828641184101;70.9150072480354
71642;BME280;60657;50.122;14.468;2023-03-25T06:13:43;97364.67452729469;;;10.556191348134583;70.74906538490883
71642;BME280;60657;50.122;14.468;2023-03-25T06:17:01;97358.19953746145;;;10.502784771496145;71.03135728999771
71642;BME280;60657;50.122;14.468;2023-03-25T06:20:17;97349.90843994355;;;10.585564965285727;70.45342183566034
71642;BME280;60657;50.122;14.468;2023-03-25T06:23:33;97372.94211474532;;;10.689707789730676;69.74387731746396
71642;BME280;60657;50.122;14.468;2023-03-25T06:26:49;97361.6935402344;;;11.026169222552838;68.60517280842298
71642;BME280;60657;50.122;14.468;2023-03-25T06:30:06;97364.56995956971;;;11.165026321812775;67.68772411688411
71642;BME280;60657;50.122;14.468;2023-03-25T06:33:23;97360.26529382064;;;11.290531776913099;66.94003204394598
71642;BME280;60657;50.122;14.468;2023-03-25T06:36:39;97361.90800740679;;;11.250476844434274;66.53185320820936
71642;BME280;60657;50.122;14.468;2023-03-25T06:39:54;97360.23673138008;;;11.354619668879224;66.20378423743038
71642;BME280;60657;50.122;14.468;2023-03-25T06:43:10;97361.70614244655;;;11.309224078736555;65.6563668268864
71642;BME280;60657;50.122;14.468;2023-03-25T06:46:26;97356.51320066368;;;11.482795452811473;65.22339208056763
71642;BME280;60657;50.122;14.468;2023-03-25T06:49:42;97357.18399810356;;;11.552224002441442;64.20294499122606
71642;BME280;60657;50.122;14.468;2023-03-25T06:52:58;97373.54663807413;;;11.776531624322878;63.718471046005945
71642;BME280;60657;50.122;14.468;2023-03-25T06:56:13;97377.24643931187;;;12.000839246204322;62.87731746395056
71642;BME280;60657;50.122;14.468;2023-03-25T06:59:29;97380.73120807247;;;12.27588311589227;61.906462195773244
71642;BME280;60657;50.122;14.468;2023-03-25T07:02:45;97376.93591202244;;;12.310597390707258;60.63614862287328
71642;BME280;60657;50.122;14.468;2023-03-25T07:06:01;97373.44293083619;;;12.593652246890976;61.04051270313573
71642;BME280;60657;50.122;14.468;2023-03-25T07:09:19;97382.71547095066;;;12.833981841763944;59.56420233463035
71642;BME280;60657;50.122;14.468;2023-03-25T07:12:34;97381.18394385619;;;12.876707103074693;59.4974441138323
71642;BME280;60657;50.122;14.468;2023-03-25T07:15:50;97372.97749296356;;;13.181124589913786;58.90043488212406
71642;BME280;60657;50.122;14.468;2023-03-25T07:19:09;97388.0385883675;;;12.655069810025175;58.86800946059357
71642;BME280;60657;50.122;14.468;2023-03-25T07:22:25;97410.04896106759;;;12.377355611505301;59.7930876630808
71642;BME280;60657;50.122;14.468;2023-03-25T07:25:40;97392.65467696941;;;12.075608453498134;60.99473563744564
71642;BME280;60657;50.122;14.468;2023-03-25T07:28:56;97406.93655338584;;;12.008850232700084;61.5898374914168
71642;BME280;60657;50.122;14.468;2023-03-25T07:32:12;97380.89759204535;;;12.153047989623865;61.486839093614094
71642;BME280;60657;50.122;14.468;2023-03-25T07:35:28;97393.93400346945;;;12.31860837720302;61.1625848783093
71642;BME280;60657;50.122;14.468;2023-03-25T07:38:44;97379.32860077973;;;12.5722896162356;60.92797741664759
71642;BME280;60657;50.122;14.468;2023-03-25T07:42:00;97383.89906985573;;;12.660410467689019;59.531776913099876
71642;BME280;60657;50.122;14.468;2023-03-25T07:45:16;97372.62965850066;;;13.346684977492941;58.269092851148244
71642;BME280;60657;50.122;14.468;2023-03-25T07:48:32;97375.93233846402;;;13.557640955214772;56.766079194323645
71642;BME280;60657;50.122;14.468;2023-03-25T07:51:48;97390.88504504376;;;12.6577401388571;58.59143968871595
71642;BME280;60657;50.122;14.468;2023-03-25T07:55:04;97393.35261575435;;;12.486839093614101;59.86938277256428
71642;BME280;60657;50.122;14.468;2023-03-25T07:58:20;97402.54097539188;;;12.032883192187384;60.94705119401846
71642;BME280;60657;50.122;14.468;2023-03-25T08:01:36;97404.78613100474;;;11.776531624322878;61.95033188372625
71642;BME280;60657;50.122;14.468;2023-03-25T08:04:52;97408.19468261352;;;11.752498664835585;62.41954680704967
71642;BME280;60657;50.122;14.468;2023-03-25T08:08:07;97414.24698988869;;;11.605630579079879;62.888761730373076
71642;BME280;60657;50.122;14.468;2023-03-25T08:11:25;97392.09667346644;;;11.514839398794535;62.219272144655534
71642;BME280;60657;50.122;14.468;2023-03-25T08:14:41;97411.31197259063;;;11.49347676813916;62.169680323491264
71642;BME280;60657;50.122;14.468;2023-03-25T08:17:57;97423.04320097785;;;11.440070191500723;62.64080262455177
71642;BME280;60657;50.122;14.468;2023-03-25T08:21:12;97395.68964059316;;;11.856641489280534;61.72716868848707
71642;BME280;60657;50.122;14.468;2023-03-25T08:24:29;97409.31790442704;;;11.640344853894867;61.900740062561994
71642;BME280;60657;50.122;14.468;2023-03-25T08:27:44;97415.09828955062;;;11.661707484550242;61.93698023956664
71642;BME280;60657;50.122;14.468;2023-03-25T08:31:03;97406.39788174172;;;11.824597543297472;61.21408407721066
71642;BME280;60657;50.122;14.468;2023-03-25T08:34:21;97413.27540656022;;;11.789883268482491;61.557412069886325
71642;BME280;60657;50.122;14.468;2023-03-25T08:37:37;97409.55844411885;;;11.982146944380865;60.9127183947509
71642;BME280;60657;50.122;14.468;2023-03-25T08:40:53;97402.16659420154;;;11.805905241474022;61.221713588159005
71642;BME280;60657;50.122;14.468;2023-03-25T08:44:09;97389.99493518917;;;12.235828183413446;60.75822079804685
71642;BME280;60657;50.122;14.468;2023-03-25T08:47:24;97388.3528306902;;;12.142366674296177;60.35767147325856
71642;BME280;60657;50.122;14.468;2023-03-25T08:50:41;97407.59772733842;;;12.096971084153509;60.639963378347446
71642;BME280;60657;50.122;14.468;2023-03-25T08:53:56;97401.12407186629;;;12.083619439993896;62.12199588006409
71642;BME280;60657;50.122;14.468;2023-03-25T08:57:12;97419.29496545564;;;11.643015182726785;64.01029983978027
71642;BME280;60657;50.122;14.468;2023-03-25T09:00:28;97435.20265912394;;;11.012817578393225;66.67490653849089
71642;BME280;60657;50.122;14.468;2023-03-25T09:03:45;97443.63096264254;;;11.066224155031662;67.62096589608606
71642;BME280;60657;50.122;14.468;2023-03-25T09:07:00;97443.18388368236;;;10.84725719081407;69.21362630655375
71642;BME280;60657;50.122;14.468;2023-03-25T09:10:16;97440.29108965887;;;11.106279087510494;68.58991378652628
71642;BME280;60657;50.122;14.468;2023-03-25T09:13:32;97427.51099131358;;;11.712443732356753;64.65499351491569
71642;BME280;60657;50.122;14.468;2023-03-25T09:16:50;97429.36596054607;;;12.177080949111165;62.40619516289006
71642;BME280;60657;50.122;14.468;2023-03-25T09:20:06;97419.55176964389;;;12.9140917067216;60.023880369268326
71642;BME280;60657;50.122;14.468;2023-03-25T09:23:22;97426.1904295129;;;12.721828030823225;57.95819028000305
71642;BME280;60657;50.122;14.468;2023-03-25T09:26:38;97421.2888713851;;;13.138399328603036;55.39658197909514
71642;BME280;60657;50.122;14.468;2023-03-25T09:29:54;97422.9903165461;;;13.450827801937898;53.55786984054322
71642;BME280;60657;50.122;14.468;2023-03-25T09:33:10;97416.23034517266;;;14.182497901884489;51.15838864728771
71642;BME280;60657;50.122;14.468;2023-03-25T09:36:26;97419.59103775617;;;14.259937438010226;48.989700160219726
71642;BME280;60657;50.122;14.468;2023-03-25T09:39:42;97422.60372489494;;;14.4281681544213;49.49706263828489
71642;BME280;60657;50.122;14.468;2023-03-25T09:43:00;97425.06179525473;;;14.764629587243455;49.62104219119554
71642;BME280;60657;50.122;14.468;2023-03-25T09:46:31;97423.29964003127;;;13.664454108491647;52.37148088807508
71642;BME280;60657;50.122;14.468;2023-03-25T09:49:52;97419.8240983854;;;13.127718013275349;54.34752422369726
71642;BME280;60657;50.122;14.468;2023-03-25T09:53:16;97420.87611098021;;;13.466849774929429;54.01373311970703
71642;BME280;60657;50.122;14.468;2023-03-25T09:56:44;97412.94803212082;;;13.293278400854504;54.311284046692606
71642;BME280;60657;50.122;14.468;2023-03-25T10:00:02;97414.80260845221;;;13.96887159533074;53.80201419089036
71642;BME280;60657;50.122;14.468;2023-03-25T10:03:22;97413.68419261173;;;14.040970473792633;52.928435187304494
71642;BME280;60657;50.122;14.468;2023-03-25T10:06:49;97400.08136328596;;;13.752574959945065;52.80636301213092
71642;BME280;60657;50.122;14.468;2023-03-25T10:10:14;97406.64675140295;;;14.227893492027164;52.11017013809415
71642;BME280;60657;50.122;14.468;2023-03-25T10:13:43;97407.39335081377;;;14.500267032883194;51.15075913633936
71642;BME280;60657;50.122;14.468;2023-03-25T10:17:09;97404.61313862019;;;14.61509117265583;51.360570687418935
71642;BME280;60657;50.122;14.468;2023-03-25T10:20:39;97406.80009169261;;;14.126420996414133;50.78835736629282
71642;BME280;60657;50.122;14.468;2023-03-25T10:24:09;97406.99424289844;;;14.024948500801102;51.890821698329134
71642;BME280;60657;50.122;14.468;2023-03-25T10:27:35;97407.018387501;;;13.619058518348972;53.0161745632105
71642;BME280;60657;50.122;14.468;2023-03-25T10:30:53;97397.21652965657;;;13.672465094987409;52.731975280384525
71642;BME280;60657;50.122;14.468;2023-03-25T10:34:11;97404.70371859187;;;13.314641031509879;53.748607614251924
71642;BME280;60657;50.122;14.468;2023-03-25T10:37:32;97390.05236213173;;;12.99153124284733;54.719462882429234
71642;BME280;60657;50.122;14.468;2023-03-25T10:40:54;97392.39684765361;;;13.130388342107274;53.786755168993665
71642;BME280;60657;50.122;14.468;2023-03-25T10:44:26;97395.36933842338;;;13.73121232928969;52.84641794460975
71642;BME280;60657;50.122;14.468;2023-03-25T10:47:43;97376.23439425566;;;14.55634393835355;50.343938353551536
71642;BME280;60657;50.122;14.468;2023-03-25T10:51:03;97362.92667279333;;;15.122453650720992;50.29816128786145
71642;BME280;60657;50.122;14.468;2023-03-25T10:54:26;97367.2484482062;;;15.624475471122302;48.131380178530556
71642;BME280;60657;50.122;14.468;2023-03-25T10:57:46;97351.36693142181;;;16.038376440070195;48.29350728618296
71642;BME280;60657;50.122;14.468;2023-03-25T11:01:09;97368.86404402147;;;15.46425574120699;48.13519493400473
71642;BME280;60657;50.122;14.468;2023-03-25T11:04:28;97378.4107188586;;;14.510948348210881;50.82269016556039
71642;BME280;60657;50.122;14.468;2023-03-25T11:07:52;97382.160510356;;;14.022278171969177;51.89463645380331
71642;BME280;60657;50.122;14.468;2023-03-25T11:11:12;97373.30417079292;;;14.740596627756162;51.314793621728846
71642;BME280;60657;50.122;14.468;2023-03-25T11:14:28;97361.58637384306;;;14.943541618982223;50.752117189288164
71642;BME280;60657;50.122;14.468;2023-03-25T11:17:45;97349.92061139375;;;14.970244907301442;50.76546883344778
71642;BME280;60657;50.122;14.468;2023-03-25T11:21:04;97362.60442436313;;;14.612420843823912;51.91561760891127
71642;BME280;60657;50.122;14.468;2023-03-25T11:24:27;97341.30418045541;;;14.737926298924236;52.352407110704206
71642;BME280;60657;50.122;14.468;2023-03-25T11:27:54;97341.49871252966;;;14.676508735790037;52.630884260318915
71642;BME280;60657;50.122;14.468;2023-03-25T11:31:19;97344.04239195028;;;14.313344014648663;52.57747768368048
71642;BME280;60657;50.122;14.468;2023-03-25T11:34:36;97336.66844792453;;;14.446860456244757;53.05622949568933
71642;BME280;60657;50.122;14.468;2023-03-25T11:37:53;97325.57048270447;;;14.986266880292973;51.5875486381323
71642;BME280;60657;50.122;14.468;2023-03-25T11:41:11;97303.5153622001;;;15.782024872205689;46.77523460746166
71642;BME280;60657;50.122;14.468;2023-03-25T11:44:29;97323.04188315419;;;15.314717326619366;46.53871976806287
71642;BME280;60657;50.122;14.468;2023-03-25T11:47:47;97316.77233814143;;;14.919508659494923;47.93873502708476
71642;BME280;60657;50.122;14.468;2023-03-25T11:51:07;97321.74062188523;;;15.643167772945752;46.700846875715264
71642;BME280;60657;50.122;14.468;2023-03-25T11:54:28;97297.02527053353;;;15.661860074769208;46.676050965133136
71642;BME280;60657;50.122;14.468;2023-03-25T11:57:47;97305.10197311475;;;15.565728236820021;47.11474784466316